Terminal Aerodrome Forecast
Issued by NWS Blacksburg, VA

Home | Current Version | Previous Version | Text Only | Print | Product List | Glossary On
Versions: 1 2 3 4 5 6 7 8 9 10 11 12 13 14 15 16 17 18 19 20 21 22 23 24
000
FTUS41 KRNK 011739
TAFLYH
TAF
KLYH 011739Z 0118/0218 VRB03KT P6SM SKC
     FM020200 00000KT P6SM SKC
     FM021200 20004KT P6SM SCT250
     FM021600 20008G14KT P6SM SCT050 BKN250=

USA.gov is the U.S. government's official web portal to all federal, state and local government web resources and services.